Time;durP1;ratioP1;P1;durP2;ratioP2;P2;SDS_P1;SDS_P2;PMS_P1;PMS_P2;Temp;Humidity;BMP_temperature;BMP_pressure;BME280_temperature;BME280_humidity;BME280_pressure;Samples;Min_cycle;Max_cycle;Signal;HPM_P1;HPM_P2
2021/11/19 00:00:42;;;;;;;16.83;12.13;;;16.30;79.30;;;;;;4203693;28;20045;-67
2021/11/19 00:02:45;;;;;;;18.73;12.70;;;16.20;79.20;;;;;;4195119;28;20054;-66
2021/11/19 00:04:48;;;;;;;19.27;12.80;;;16.20;79.20;;;;;;4204709;28;20102;-69
2021/11/19 00:06:52;;;;;;;18.25;12.63;;;16.20;79.20;;;;;;4200629;28;20059;-66
2021/11/19 00:08:56;;;;;;;18.40;12.05;;;16.20;79.20;;;;;;4197621;28;20248;-68
2021/11/19 00:11:05;;;;;;;18.45;11.77;;;16.20;79.20;;;;;;4203685;28;20261;-67
2021/11/19 00:13:09;;;;;;;18.33;12.43;;;16.20;79.20;;;;;;4193932;28;20081;-67
2021/11/19 00:15:13;;;;;;;18.67;12.25;;;16.20;79.30;;;;;;4204911;28;20064;-67
2021/11/19 00:17:17;;;;;;;17.63;12.00;;;16.20;79.30;;;;;;4194132;28;20361;-66
2021/11/19 00:19:20;;;;;;;19.13;12.65;;;16.20;79.20;;;;;;4218806;28;20067;-71
2021/11/19 00:21:27;;;;;;;16.02;11.43;;;16.20;79.20;;;;;;4202619;28;20048;-69
2021/11/19 00:23:30;;;;;;;16.50;11.80;;;16.20;79.20;;;;;;4194762;28;20097;-72
2021/11/19 00:25:34;;;;;;;17.33;11.35;;;16.20;79.20;;;;;;4204906;28;20063;-70
2021/11/19 00:27:38;;;;;;;19.20;12.10;;;16.20;79.20;;;;;;4194148;28;20060;-66
2021/11/19 00:29:41;;;;;;;18.50;11.23;;;16.20;79.20;;;;;;4203333;28;20090;-67
2021/11/19 00:31:46;;;;;;;14.57;11.02;;;16.20;79.20;;;;;;4202767;28;20049;-68
2021/11/19 00:33:51;;;;;;;16.58;11.40;;;16.20;79.20;;;;;;4194411;28;20068;-68
2021/11/19 00:35:54;;;;;;;14.18;11.18;;;16.20;79.20;;;;;;4204729;28;20056;-67
2021/11/19 00:37:58;;;;;;;16.50;11.43;;;16.20;79.20;;;;;;4194012;28;20057;-69
2021/11/19 00:40:04;;;;;;;15.57;11.00;;;16.20;79.20;;;;;;4197471;28;20055;-70
2021/11/19 00:42:08;;;;;;;16.90;10.77;;;16.20;79.20;;;;;;4200680;28;20086;-70
2021/11/19 00:44:12;;;;;;;14.88;10.63;;;16.20;79.20;;;;;;4198397;28;20045;-68
2021/11/19 00:46:15;;;;;;;15.48;10.68;;;16.20;79.20;;;;;;4203372;28;20060;-72
2021/11/19 00:48:21;;;;;;;15.15;10.50;;;16.20;79.20;;;;;;4192438;28;20287;-73
2021/11/19 00:50:29;;;;;;;16.02;10.50;;;16.20;79.20;;;;;;4203272;28;20044;-70
2021/11/19 00:52:32;;;;;;;13.85;9.88;;;16.20;79.20;;;;;;4201512;28;20247;-67
2021/11/19 00:54:36;;;;;;;13.45;10.63;;;16.20;79.10;;;;;;4195220;28;20052;-67
2021/11/19 00:56:42;;;;;;;13.82;9.93;;;16.20;79.20;;;;;;4204785;28;20056;-66
2021/11/19 00:58:46;;;;;;;16.92;10.88;;;16.20;79.20;;;;;;4193040;28;20076;-72
2021/11/19 01:00:52;;;;;;;16.63;11.30;;;16.20;79.20;;;;;;4203974;28;20083;-74
2021/11/19 01:02:56;;;;;;;15.38;10.23;;;16.20;79.10;;;;;;4201512;28;20068;-70
2021/11/19 01:05:00;;;;;;;13.18;9.50;;;16.20;79.10;;;;;;4195428;28;20055;-68
2021/11/19 01:07:06;;;;;;;11.60;9.25;;;16.20;79.20;;;;;;4205369;28;20049;-69
2021/11/19 01:09:12;;;;;;;14.18;9.60;;;16.20;79.20;;;;;;4202499;28;20056;-67
2021/11/19 01:11:21;;;;;;;13.85;9.63;;;16.20;79.20;;;;;;4189286;28;20056;-71
2021/11/19 01:13:24;;;;;;;15.32;9.73;;;16.20;79.20;;;;;;4192904;28;20045;-68
2021/11/19 01:15:31;;;;;;;14.13;9.77;;;16.20;79.10;;;;;;4196327;28;20053;-70
2021/11/19 01:17:37;;;;;;;13.60;9.48;;;16.10;79.10;;;;;;4187985;28;20233;-70
2021/11/19 01:19:49;;;;;;;14.05;9.65;;;16.20;79.10;;;;;;4203629;28;20040;-70
2021/11/19 01:21:56;;;;;;;14.57;9.27;;;16.20;79.10;;;;;;4204441;28;20052;-67
2021/11/19 01:24:01;;;;;;;13.48;9.48;;;16.20;79.10;;;;;;4199651;28;20102;-69
2021/11/19 01:26:08;;;;;;;16.20;10.15;;;16.20;79.10;;;;;;4202253;28;20062;-69
2021/11/19 01:28:12;;;;;;;13.63;9.07;;;16.10;79.10;;;;;;4206526;28;20048;-66
2021/11/19 01:30:18;;;;;;;12.90;9.27;;;16.20;79.10;;;;;;4196811;28;20277;-68
2021/11/19 01:32:24;;;;;;;13.02;9.38;;;16.10;79.10;;;;;;4208058;28;20049;-69
2021/11/19 01:34:29;;;;;;;13.05;9.20;;;16.10;79.10;;;;;;4199610;28;20433;-68
2021/11/19 01:36:33;;;;;;;13.98;9.60;;;16.20;79.10;;;;;;4202382;28;20289;-69
2021/11/19 01:38:36;;;;;;;17.20;9.63;;;16.10;79.10;;;;;;4204040;28;20264;-71
2021/11/19 01:40:43;;;;;;;12.70;8.77;;;16.10;79.10;;;;;;4206080;28;20048;-67
2021/11/19 01:42:52;;;;;;;12.02;9.02;;;16.10;79.10;;;;;;4222909;28;20123;-66
2021/11/19 01:44:59;;;;;;;13.45;9.07;;;16.10;79.10;;;;;;4199260;28;20049;-70
2021/11/19 01:47:05;;;;;;;12.32;8.52;;;16.20;79.10;;;;;;4203663;28;20052;-71
2021/11/19 01:49:08;;;;;;;15.45;9.27;;;16.10;79.10;;;;;;4205884;28;20341;-68
2021/11/19 01:51:23;;;;;;;12.43;8.40;;;16.10;79.10;;;;;;4195921;28;20379;-67
2021/11/19 01:53:28;;;;;;;11.70;8.52;;;16.10;79.10;;;;;;4207178;28;20074;-69
2021/11/19 01:55:46;;;;;;;12.60;9.20;;;16.10;79.10;;;;;;4196624;28;20375;-72
2021/11/19 01:57:53;;;;;;;13.02;8.77;;;16.10;79.10;;;;;;4190408;28;20045;-68
2021/11/19 01:59:59;;;;;;;14.25;8.77;;;16.10;79.10;;;;;;4194139;28;20237;-66
2021/11/19 02:02:07;;;;;;;12.57;9.02;;;16.20;79.10;;;;;;4198538;28;20051;-70
2021/11/19 02:04:13;;;;;;;13.02;8.50;;;16.10;79.10;;;;;;4190740;28;20044;-67
2021/11/19 02:06:19;;;;;;;12.48;8.88;;;16.10;79.10;;;;;;4195032;28;20055;-71
2021/11/19 02:08:24;;;;;;;14.73;9.02;;;16.10;79.10;;;;;;4207153;28;20052;-68
2021/11/19 02:10:34;;;;;;;13.43;8.55;;;16.10;79.10;;;;;;4202626;28;20051;-67
2021/11/19 02:12:48;;;;;;;13.18;8.35;;;16.10;79.10;;;;;;4196243;28;20055;-69
2021/11/19 02:14:59;;;;;;;12.63;8.48;;;16.10;79.10;;;;;;4192041;28;20045;-72
2021/11/19 02:17:05;;;;;;;13.30;9.00;;;16.10;79.10;;;;;;4201888;28;20049;-70
2021/11/19 02:19:14;;;;;;;13.68;8.73;;;16.10;79.10;;;;;;4191238;28;20571;-69
2021/11/19 02:21:20;;;;;;;12.35;8.77;;;16.10;79.20;;;;;;4199052;28;20300;-71
2021/11/19 02:23:27;;;;;;;11.73;7.95;;;16.10;79.10;;;;;;4192448;28;20053;-70
2021/11/19 02:25:34;;;;;;;14.57;9.00;;;16.10;79.20;;;;;;4191765;28;20374;-73
2021/11/19 02:27:42;;;;;;;14.02;8.43;;;16.10;79.20;;;;;;4200148;28;20067;-68
2021/11/19 02:29:49;;;;;;;13.93;9.05;;;16.10;79.20;;;;;;4190016;28;20098;-68
2021/11/19 02:31:57;;;;;;;10.85;7.78;;;16.10;79.20;;;;;;4201417;28;20234;-67
2021/11/19 02:34:05;;;;;;;12.63;8.98;;;16.10;79.20;;;;;;4189885;28;20099;-72
2021/11/19 02:36:11;;;;;;;13.68;8.60;;;16.10;79.10;;;;;;4193039;28;20048;-66
2021/11/19 02:38:14;;;;;;;12.73;7.70;;;16.10;79.10;;;;;;4199296;28;20261;-71
2021/11/19 02:40:27;;;;;;;10.88;7.85;;;16.10;79.10;;;;;;4206262;28;20048;-69
2021/11/19 02:42:35;;;;;;;10.35;8.15;;;16.10;79.20;;;;;;4194555;28;20268;-71
2021/11/19 02:44:41;;;;;;;13.27;7.68;;;16.10;79.10;;;;;;4206194;28;20049;-73
2021/11/19 02:46:47;;;;;;;12.05;8.60;;;16.10;79.20;;;;;;4200075;28;20059;-73
2021/11/19 02:48:50;;;;;;;12.88;8.35;;;16.10;79.20;;;;;;4200844;28;20052;-71
2021/11/19 02:50:54;;;;;;;12.18;7.53;;;16.10;79.20;;;;;;4205141;28;20101;-68
2021/11/19 02:52:58;;;;;;;12.15;8.45;;;16.10;79.20;;;;;;4195443;28;20053;-69
2021/11/19 02:55:05;;;;;;;11.90;7.60;;;16.10;79.20;;;;;;4206775;28;20053;-66
2021/11/19 02:57:08;;;;;;;12.05;8.55;;;16.10;79.20;;;;;;4200024;28;20049;-73
2021/11/19 02:59:12;;;;;;;11.75;8.55;;;16.10;79.20;;;;;;4200779;28;20070;-72
2021/11/19 03:01:19;;;;;;;11.60;7.63;;;16.10;79.20;;;;;;4205058;28;20278;-68
2021/11/19 03:03:22;;;;;;;11.18;7.80;;;16.10;79.20;;;;;;4195449;28;20264;-65
2021/11/19 03:05:27;;;;;;;11.38;8.30;;;16.10;79.20;;;;;;4207138;28;20044;-70
2021/11/19 03:07:30;;;;;;;11.98;8.18;;;16.10;79.20;;;;;;4201886;28;20248;-66
2021/11/19 03:09:38;;;;;;;11.13;7.70;;;16.10;79.20;;;;;;4205968;28;20102;-67
2021/11/19 03:11:41;;;;;;;10.30;7.80;;;16.10;79.20;;;;;;4204578;28;20044;-64
2021/11/19 03:13:45;;;;;;;13.38;9.00;;;16.10;79.20;;;;;;4194650;28;20229;-68
2021/11/19 03:15:49;;;;;;;13.32;8.18;;;16.10;79.20;;;;;;4206331;28;20225;-66
2021/11/19 03:17:54;;;;;;;11.85;8.48;;;16.10;79.20;;;;;;4199095;28;20079;-68
2021/11/19 03:19:57;;;;;;;12.38;8.32;;;16.10;79.20;;;;;;4200587;28;20238;-66
2021/11/19 03:22:00;;;;;;;11.65;8.18;;;16.10;79.20;;;;;;4204241;28;20049;-66
2021/11/19 03:24:05;;;;;;;11.95;8.35;;;16.10;79.20;;;;;;4194593;28;20115;-69
2021/11/19 03:26:09;;;;;;;12.45;8.40;;;16.10;79.30;;;;;;4206060;28;20048;-66
2021/11/19 03:28:16;;;;;;;13.27;8.18;;;16.10;79.20;;;;;;4199067;28;20071;-66
2021/11/19 03:30:21;;;;;;;12.10;8.50;;;16.10;79.20;;;;;;4201206;28;20418;-70
2021/11/19 03:32:28;;;;;;;12.48;8.65;;;16.10;79.20;;;;;;4204340;28;20102;-67
2021/11/19 03:34:33;;;;;;;11.35;8.77;;;16.00;79.20;;;;;;4197389;28;20068;-70
2021/11/19 03:36:37;;;;;;;;;;;16.10;79.20;;;;;;4206222;28;20457;-66
2021/11/19 03:38:43;;;;;;;11.30;8.25;;;16.10;79.20;;;;;;4202623;28;19962;-69
2021/11/19 03:40:48;;;;;;;12.15;8.45;;;16.10;79.30;;;;;;4205882;28;20048;-70
2021/11/19 03:42:53;;;;;;;14.20;8.40;;;16.00;79.20;;;;;;4204292;28;20053;-69
2021/11/19 03:44:59;;;;;;;12.65;8.65;;;16.00;79.20;;;;;;4194466;28;20044;-67
2021/11/19 03:47:06;;;;;;;14.07;8.30;;;16.00;79.20;;;;;;4205439;28;20056;-66
2021/11/19 03:49:10;;;;;;;12.77;8.05;;;16.10;79.30;;;;;;4196721;28;20379;-70
2021/11/19 03:51:18;;;;;;;12.55;8.50;;;16.10;79.20;;;;;;4203081;28;20241;-66
2021/11/19 03:53:23;;;;;;;13.55;8.65;;;16.00;79.20;;;;;;4204329;28;20048;-67
2021/11/19 03:55:30;;;;;;;13.23;8.75;;;16.00;79.20;;;;;;4194828;28;20044;-67
2021/11/19 03:57:34;;;;;;;11.73;8.73;;;16.00;79.20;;;;;;4205601;28;20052;-68
2021/11/19 03:59:38;;;;;;;;;;;16.00;79.20;;;;;;4195694;28;20048;-67
2021/11/19 04:01:47;;;;;;;11.60;8.32;;;16.10;79.20;;;;;;4201699;28;19946;-68
2021/11/19 04:03:50;;;;;;;11.77;8.23;;;16.10;79.30;;;;;;4203358;28;20086;-69
2021/11/19 04:05:54;;;;;;;15.40;8.75;;;16.10;79.30;;;;;;4202485;28;20055;-67
2021/11/19 04:07:59;;;;;;;11.43;8.80;;;16.00;79.20;;;;;;4205459;28;20052;-72
2021/11/19 04:10:02;;;;;;;14.48;9.45;;;16.10;79.20;;;;;;4200789;28;20049;-67
2021/11/19 04:12:06;;;;;;;11.70;8.18;;;16.00;79.20;;;;;;4190084;28;20367;-69
2021/11/19 04:14:10;;;;;;;12.40;8.70;;;16.00;79.20;;;;;;4205632;28;20288;-70
2021/11/19 04:16:17;;;;;;;11.55;8.00;;;16.00;79.30;;;;;;4197341;28;20470;-68
2021/11/19 04:18:20;;;;;;;12.07;8.93;;;16.00;79.30;;;;;;4188378;28;20242;-68
2021/11/19 04:20:24;;;;;;;10.65;8.13;;;16.00;79.20;;;;;;4198753;28;20137;-68
2021/11/19 04:22:27;;;;;;;14.38;9.25;;;16.10;79.20;;;;;;4189614;28;20277;-71
2021/11/19 04:24:34;;;;;;;13.55;8.45;;;16.00;79.20;;;;;;4205429;28;20079;-73
2021/11/19 04:26:38;;;;;;;11.40;7.95;;;16.10;79.20;;;;;;4198102;28;20091;-69
2021/11/19 04:28:43;;;;;;;14.18;9.25;;;16.00;79.20;;;;;;4188594;28;20078;-69
2021/11/19 04:30:51;;;;;;;11.10;8.30;;;16.00;79.20;;;;;;4198999;28;20223;-69
2021/11/19 04:32:55;;;;;;;10.75;7.95;;;16.00;79.30;;;;;;4188876;28;20115;-68
2021/11/19 04:34:58;;;;;;;12.23;8.40;;;16.00;79.30;;;;;;4195883;28;20053;-66
2021/11/19 04:37:01;;;;;;;11.73;8.68;;;16.00;79.30;;;;;;4211421;28;20044;-72
2021/11/19 04:39:06;;;;;;;12.30;8.43;;;16.00;79.20;;;;;;4197036;28;20079;-68
2021/11/19 04:41:11;;;;;;;11.70;8.45;;;16.10;79.30;;;;;;4199854;28;20048;-68
2021/11/19 04:43:14;;;;;;;11.55;7.97;;;16.00;79.20;;;;;;4189247;28;20061;-71
2021/11/19 04:45:21;;;;;;;14.98;8.38;;;16.00;79.20;;;;;;4190465;28;20337;-71
2021/11/19 04:47:24;;;;;;;14.40;9.45;;;16.00;79.30;;;;;;4197227;28;20056;-67
2021/11/19 04:49:28;;;;;;;13.40;8.90;;;16.00;79.20;;;;;;4188337;28;20052;-68
2021/11/19 04:51:38;;;;;;;11.77;8.70;;;16.00;79.20;;;;;;4199623;28;20070;-67
2021/11/19 04:53:42;;;;;;;11.02;8.45;;;16.00;79.30;;;;;;4188122;28;20052;-69
2021/11/19 04:55:46;;;;;;;11.50;8.13;;;16.00;79.20;;;;;;4191721;28;20340;-67
2021/11/19 04:57:51;;;;;;;11.30;8.45;;;16.00;79.20;;;;;;4211715;28;20041;-74
2021/11/19 04:59:54;;;;;;;11.93;8.38;;;16.00;79.20;;;;;;4203454;28;20123;-74
2021/11/19 05:01:59;;;;;;;11.50;8.68;;;16.00;79.20;;;;;;4199829;28;20055;-73
2021/11/19 05:04:05;;;;;;;12.43;8.75;;;16.00;79.20;;;;;;4188069;28;20391;-71
2021/11/19 05:06:09;;;;;;;12.23;8.77;;;16.00;79.30;;;;;;4199639;28;20045;-67
2021/11/19 05:08:13;;;;;;;14.65;9.10;;;16.00;79.20;;;;;;4197333;28;20102;-68
2021/11/19 05:10:17;;;;;;;12.80;8.52;;;16.00;79.20;;;;;;4204798;28;20052;-67
2021/11/19 05:12:25;;;;;;;12.65;9.35;;;16.00;79.20;;;;;;4192052;28;20060;-67
2021/11/19 05:14:30;;;;;;;12.45;8.15;;;16.00;79.20;;;;;;4188130;28;20049;-71
2021/11/19 05:16:34;;;;;;;14.70;8.90;;;16.00;79.20;;;;;;4191195;28;20044;-68
2021/11/19 05:18:38;;;;;;;13.43;8.97;;;16.00;79.20;;;;;;4195552;28;20248;-70
2021/11/19 05:20:41;;;;;;;12.55;8.55;;;16.00;79.20;;;;;;4188205;28;20048;-67
2021/11/19 05:22:45;;;;;;;13.13;8.82;;;16.00;79.20;;;;;;4191832;28;20386;-71
2021/11/19 05:24:49;;;;;;;12.13;8.80;;;16.00;79.20;;;;;;4205185;28;20093;-72
2021/11/19 05:26:53;;;;;;;13.30;8.75;;;16.00;79.20;;;;;;4201020;28;20071;-70
2021/11/19 05:28:56;;;;;;;13.30;9.00;;;16.00;79.30;;;;;;4197342;28;20053;-73
2021/11/19 05:31:02;;;;;;;12.98;8.85;;;16.00;79.30;;;;;;4204464;28;20406;-67
2021/11/19 05:33:06;;;;;;;12.65;9.05;;;16.00;79.20;;;;;;4191590;28;20049;-67
2021/11/19 05:35:10;;;;;;;12.52;9.07;;;16.00;79.30;;;;;;4220027;28;20052;-73
2021/11/19 05:37:13;;;;;;;12.88;8.65;;;16.00;79.30;;;;;;4200011;28;20079;-72
2021/11/19 05:39:17;;;;;;;13.60;8.73;;;16.00;79.30;;;;;;4190598;28;20059;-69
2021/11/19 05:41:22;;;;;;;11.23;8.40;;;16.00;79.20;;;;;;4204515;28;20049;-67
2021/11/19 05:43:26;;;;;;;12.10;8.65;;;16.00;79.20;;;;;;4192920;28;20053;-70
2021/11/19 05:45:31;;;;;;;11.40;8.20;;;16.00;79.20;;;;;;4204525;28;20048;-67
2021/11/19 05:47:35;;;;;;;12.00;8.45;;;16.00;79.20;;;;;;4199867;28;20052;-73
2021/11/19 05:49:39;;;;;;;13.13;9.38;;;16.00;79.20;;;;;;4196781;28;20055;-70
2021/11/19 05:51:43;;;;;;;13.48;9.48;;;16.00;79.20;;;;;;4204263;28;20057;-71
2021/11/19 05:53:47;;;;;;;12.68;8.82;;;16.00;79.20;;;;;;4202644;28;20067;-69
2021/11/19 05:55:51;;;;;;;12.68;9.02;;;16.00;79.20;;;;;;4187818;28;20057;-70
2021/11/19 05:57:54;;;;;;;12.02;8.52;;;16.00;79.20;;;;;;4191595;28;20063;-73
2021/11/19 05:59:57;;;;;;;11.05;8.48;;;16.00;79.20;;;;;;4196054;28;20053;-68
2021/11/19 06:02:00;;;;;;;12.38;8.30;;;16.00;79.20;;;;;;4203909;28;20241;-69
2021/11/19 06:04:06;;;;;;;12.85;8.13;;;16.00;79.20;;;;;;4191548;28;20052;-71
2021/11/19 06:06:09;;;;;;;11.93;8.20;;;16.00;79.30;;;;;;4203681;28;20053;-72
2021/11/19 06:08:12;;;;;;;11.30;8.98;;;16.00;79.20;;;;;;4202892;28;20055;-70
2021/11/19 06:10:18;;;;;;;11.63;7.78;;;16.00;79.30;;;;;;4204658;28;20263;-70
2021/11/19 06:12:25;;;;;;;12.40;8.98;;;16.00;79.30;;;;;;4207700;28;20048;-68
2021/11/19 06:14:33;;;;;;;11.75;8.23;;;16.00;79.30;;;;;;4195445;28;20098;-66
2021/11/19 06:16:39;;;;;;;11.68;8.48;;;16.00;79.30;;;;;;4223141;28;20076;-70
2021/11/19 06:18:45;;;;;;;10.38;8.35;;;16.00;79.30;;;;;;4201559;28;20295;-69
2021/11/19 06:20:52;;;;;;;13.60;8.90;;;16.00;79.20;;;;;;4200388;28;20340;-71
2021/11/19 06:22:58;;;;;;;11.50;8.25;;;16.00;79.20;;;;;;4205819;28;20052;-73
2021/11/19 06:25:05;;;;;;;11.07;7.75;;;16.00;79.20;;;;;;4201693;28;20052;-73
2021/11/19 06:27:10;;;;;;;10.88;8.50;;;16.00;79.20;;;;;;4190383;28;20049;-71
2021/11/19 06:29:14;;;;;;;12.20;8.27;;;16.00;79.20;;;;;;4196577;28;20240;-67
2021/11/19 06:31:19;;;;;;;13.38;8.60;;;16.00;79.20;;;;;;4195857;28;20095;-68
2021/11/19 06:33:22;;;;;;;11.85;8.15;;;16.00;79.20;;;;;;4191341;28;20059;-73
2021/11/19 06:35:25;;;;;;;11.10;8.15;;;16.00;79.20;;;;;;4201415;28;20229;-68
2021/11/19 06:37:30;;;;;;;13.90;8.65;;;16.00;79.10;;;;;;4190028;28;20057;-68
2021/11/19 06:39:33;;;;;;;10.00;7.85;;;16.00;79.10;;;;;;4198786;28;20067;-72
2021/11/19 06:41:37;;;;;;;10.93;8.07;;;16.00;79.20;;;;;;4206564;28;20052;-70
2021/11/19 06:43:40;;;;;;;9.25;7.38;;;16.00;79.20;;;;;;4206362;28;20426;-70
2021/11/19 06:45:43;;;;;;;11.10;7.68;;;16.00;79.20;;;;;;4201262;28;20074;-70
2021/11/19 06:47:46;;;;;;;11.50;8.35;;;16.00;79.20;;;;;;4189928;28;20055;-67
2021/11/19 06:49:50;;;;;;;12.15;8.18;;;16.00;79.10;;;;;;4195438;28;20052;-68
2021/11/19 06:51:53;;;;;;;11.57;8.05;;;16.00;79.10;;;;;;4196143;28;20053;-70
2021/11/19 06:53:58;;;;;;;10.95;7.97;;;16.00;79.10;;;;;;4190527;28;20333;-70
2021/11/19 06:56:02;;;;;;;12.52;7.70;;;16.00;79.10;;;;;;4191260;28;20218;-67
2021/11/19 06:58:07;;;;;;;11.48;7.93;;;16.00;79.20;;;;;;4206565;28;20137;-72
2021/11/19 07:00:13;;;;;;;11.18;8.50;;;16.00;79.20;;;;;;4200972;28;20041;-67
2021/11/19 07:02:16;;;;;;;11.25;7.85;;;16.00;79.20;;;;;;4201079;28;20052;-70
2021/11/19 07:04:20;;;;;;;10.90;7.85;;;16.00;79.20;;;;;;4206274;28;20052;-67
2021/11/19 07:06:23;;;;;;;11.35;8.27;;;16.00;79.10;;;;;;4200956;28;20052;-71
2021/11/19 07:08:27;;;;;;;10.27;7.65;;;16.00;79.10;;;;;;4192453;28;20060;-73
2021/11/19 07:10:33;;;;;;;11.85;8.52;;;16.00;79.10;;;;;;4201893;28;20434;-72
2021/11/19 07:12:36;;;;;;;10.77;7.70;;;16.00;79.10;;;;;;4195772;28;20049;-69
2021/11/19 07:14:40;;;;;;;10.93;7.70;;;16.00;79.10;;;;;;4189972;28;20049;-71
2021/11/19 07:16:44;;;;;;;12.45;7.93;;;16.00;79.10;;;;;;4200681;28;20048;-70
2021/11/19 07:18:47;;;;;;;11.60;7.70;;;16.00;79.20;;;;;;4189278;28;20063;-66
2021/11/19 07:20:51;;;;;;;9.07;7.00;;;15.90;79.00;;;;;;4202150;28;20055;-69
2021/11/19 07:22:56;;;;;;;10.13;7.40;;;15.90;79.10;;;;;;4195340;28;20062;-71
2021/11/19 07:25:00;;;;;;;10.93;7.63;;;16.00;79.10;;;;;;4190144;28;20351;-72
2021/11/19 07:27:06;;;;;;;10.23;7.75;;;16.00;79.10;;;;;;4200338;28;20133;-72
2021/11/19 07:29:09;;;;;;;12.38;8.10;;;16.00;79.10;;;;;;4189201;28;20057;-66
2021/11/19 07:31:14;;;;;;;10.60;6.95;;;16.00;79.10;;;;;;4194808;28;20070;-66
2021/11/19 07:33:19;;;;;;;12.40;7.35;;;16.00;79.20;;;;;;4195105;28;20276;-70
2021/11/19 07:35:22;;;;;;;9.57;7.20;;;16.00;79.20;;;;;;4190451;28;20127;-67
2021/11/19 07:37:25;;;;;;;10.70;7.43;;;16.00;79.20;;;;;;4190717;28;20280;-73
2021/11/19 07:39:29;;;;;;;12.45;7.57;;;16.00;79.20;;;;;;4197065;28;20371;-70
2021/11/19 07:41:32;;;;;;;10.13;7.53;;;16.00;79.20;;;;;;4201083;28;20057;-69
2021/11/19 07:43:40;;;;;;;11.77;8.00;;;15.90;79.20;;;;;;4195358;28;20053;-71
2021/11/19 07:45:44;;;;;;;14.35;7.47;;;16.00;79.20;;;;;;4190209;28;20070;-73
2021/11/19 07:47:49;;;;;;;12.45;8.13;;;16.00;79.20;;;;;;4200557;28;20090;-67
2021/11/19 07:49:52;;;;;;;10.90;6.95;;;16.00;79.20;;;;;;4189066;28;20102;-67
2021/11/19 07:51:55;;;;;;;10.45;7.47;;;15.90;79.10;;;;;;4194799;28;20468;-72
2021/11/19 07:53:59;;;;;;;14.07;7.63;;;16.00;79.10;;;;;;4195267;28;20056;-67
2021/11/19 07:56:05;;;;;;;15.60;7.70;;;16.00;79.10;;;;;;4195549;28;20044;-71
2021/11/19 07:58:08;;;;;;;11.20;7.15;;;16.00;79.10;;;;;;4190356;28;20245;-71
2021/11/19 08:00:16;;;;;;;20.35;8.65;;;16.00;79.80;;;;;;4204052;28;20079;-66
2021/11/19 08:02:19;;;;;;;27.50;8.90;;;16.00;79.20;;;;;;4196128;28;20049;-66
2021/11/19 08:04:23;;;;;;;38.58;10.65;;;16.00;79.20;;;;;;4196879;28;20219;-68
2021/11/19 08:06:32;;;;;;;42.03;10.18;;;16.00;79.20;;;;;;4199873;28;20129;-73
2021/11/19 08:08:37;;;;;;;38.97;11.85;;;16.00;79.10;;;;;;4201990;28;20217;-67
2021/11/19 08:10:40;;;;;;;39.65;10.93;;;16.00;79.10;;;;;;4198050;28;20056;-67
2021/11/19 08:12:44;;;;;;;28.98;10.57;;;15.90;79.10;;;;;;4192307;28;20052;-72
2021/11/19 08:14:47;;;;;;;33.58;11.15;;;15.90;79.10;;;;;;4202682;28;20049;-67
2021/11/19 08:16:54;;;;;;;29.52;10.23;;;15.90;79.10;;;;;;4194145;28;20071;-66
2021/11/19 08:19:00;;;;;;;29.88;9.93;;;15.90;79.10;;;;;;4197152;28;20051;-69
2021/11/19 08:21:03;;;;;;;31.35;9.70;;;15.90;79.10;;;;;;4198146;28;20105;-69
2021/11/19 08:23:10;;;;;;;27.83;10.85;;;16.00;79.20;;;;;;4198384;28;20103;-69
2021/11/19 08:25:13;;;;;;;23.73;10.27;;;16.00;79.40;;;;;;4194997;28;20065;-70
2021/11/19 08:27:19;;;;;;;19.00;9.43;;;16.00;79.40;;;;;;4194650;28;20045;-64
2021/11/19 08:29:25;;;;;;;21.35;9.43;;;15.90;79.20;;;;;;4199253;28;20061;-66
2021/11/19 08:31:28;;;;;;;27.80;10.23;;;16.00;79.20;;;;;;4195570;28;20446;-67
2021/11/19 08:33:32;;;;;;;26.38;10.32;;;16.00;79.10;;;;;;4198848;28;20060;-72
2021/11/19 08:35:39;;;;;;;29.13;11.38;;;16.00;79.10;;;;;;4204243;28;20362;-69
2021/11/19 08:37:43;;;;;;;21.17;9.88;;;16.00;79.30;;;;;;4189383;28;20048;-74
2021/11/19 08:39:49;;;;;;;20.48;9.52;;;15.90;79.60;;;;;;4201688;28;20048;-66
2021/11/19 08:41:55;;;;;;;24.52;9.63;;;15.90;80.00;;;;;;4185897;28;20053;-70
2021/11/19 08:43:59;;;;;;;;;;;15.90;80.20;;;;;;4191794;28;20248;-78
2021/11/19 08:46:13;;;;;;;20.08;9.75;;;16.00;80.10;;;;;;4202289;28;20399;-74
2021/11/19 08:48:17;;;;;;;20.55;8.68;;;16.00;80.20;;;;;;4202690;28;20094;-68
2021/11/19 08:50:25;;;;;;;19.40;9.90;;;16.00;80.00;;;;;;4193272;28;20052;-75
2021/11/19 08:52:29;;;;;;;21.35;9.20;;;16.10;79.90;;;;;;4203968;28;20075;-66
2021/11/19 08:54:32;;;;;;;16.27;9.00;;;16.00;79.70;;;;;;4199741;28;20056;-69
2021/11/19 08:56:39;;;;;;;19.73;9.33;;;16.10;79.70;;;;;;4188904;28;20053;-70
2021/11/19 08:58:43;;;;;;;16.65;9.38;;;16.10;79.80;;;;;;4192173;28;20473;-73
2021/11/19 09:00:47;;;;;;;19.17;9.32;;;16.10;79.60;;;;;;4194011;28;20059;-73
2021/11/19 09:02:51;;;;;;;16.35;9.85;;;16.10;79.60;;;;;;4204692;28;20062;-73
2021/11/19 09:04:55;;;;;;;25.92;10.02;;;16.10;79.40;;;;;;4214312;28;20086;-68
2021/11/19 09:07:03;;;;;;;18.30;8.95;;;16.10;79.40;;;;;;4188007;28;20106;-65
2021/11/19 09:09:08;;;;;;;19.88;9.32;;;16.20;79.60;;;;;;4192255;28;20045;-70
2021/11/19 09:11:16;;;;;;;23.92;9.50;;;16.10;79.50;;;;;;4197175;28;20332;-66
2021/11/19 09:13:20;;;;;;;21.33;8.57;;;16.20;79.50;;;;;;4188040;28;20053;-71
2021/11/19 09:15:25;;;;;;;19.33;9.15;;;16.20;79.60;;;;;;4215552;28;20052;-74
2021/11/19 09:17:42;;;;;;;;;;;16.20;79.60;;;;;;4204445;28;20049;-76
2021/11/19 09:19:53;;;;;;;20.80;9.93;;;16.30;79.80;;;;;;4200800;28;19916;-69
2021/11/19 09:22:20;;;;;;;26.05;10.60;;;16.20;80.20;;;;;;4193949;28;20055;-72
2021/11/19 09:24:25;;;;;;;29.25;9.13;;;16.30;80.30;;;;;;4189589;28;20045;-65
2021/11/19 09:26:35;;;;;;;24.45;9.63;;;16.30;80.40;;;;;;4208973;28;20372;-66
2021/11/19 09:28:40;;;;;;;28.65;9.80;;;16.40;80.30;;;;;;4187320;28;20061;-76
2021/11/19 09:30:48;;;;;;;24.50;10.10;;;16.40;80.30;;;;;;4198801;28;20224;-70
2021/11/19 09:32:54;;;;;;;26.67;9.27;;;16.40;80.20;;;;;;4202619;28;20048;-68
2021/11/19 09:34:59;;;;;;;29.50;9.50;;;16.40;80.20;;;;;;4207190;28;20048;-64
2021/11/19 09:37:02;;;;;;;;;;;16.40;80.20;;;;;;4194678;28;20366;-64
2021/11/19 09:39:10;;;;;;;26.60;10.45;;;16.40;79.80;;;;;;4203598;28;19966;-64
2021/11/19 09:41:46;;;;;;;28.92;10.23;;;16.40;79.70;;;;;;4206605;28;20206;-68
2021/11/19 09:44:02;;;;;;;29.60;11.05;;;16.50;80.20;;;;;;4196021;28;20715;-70
2021/11/19 09:46:38;;;;;;;22.35;9.77;;;16.50;80.70;;;;;;4200622;28;20060;-68
2021/11/19 09:48:53;;;;;;;30.88;9.95;;;16.60;81.00;;;;;;4182663;28;20064;-67
2021/11/19 09:51:42;;;;;;;25.65;10.00;;;16.60;80.00;;;;;;4201843;28;20374;-72
2021/11/19 09:54:36;;;;;;;34.22;13.48;;;16.70;79.30;;;;;;4204116;28;20269;-71
2021/11/19 09:57:21;;;;;;;38.47;12.90;;;16.70;79.20;;;;;;4153271;28;20057;-65
2021/11/19 09:59:33;;;;;;;32.05;11.43;;;16.80;79.60;;;;;;4169657;28;21125;-68
2021/11/19 10:02:10;;;;;;;42.40;13.30;;;16.80;79.60;;;;;;4200693;28;20056;-74
2021/11/19 10:04:28;;;;;;;41.10;13.27;;;16.90;79.40;;;;;;4197898;28;20434;-68
2021/11/19 10:06:37;;;;;;;32.45;13.43;;;16.90;79.30;;;;;;4201632;28;20120;-70
2021/11/19 10:08:53;;;;;;;25.95;12.88;;;16.90;78.70;;;;;;4198751;28;20122;-76
2021/11/19 10:11:23;;;;;;;34.53;14.20;;;16.90;79.10;;;;;;4204284;28;20048;-67
2021/11/19 10:13:53;;;;;;;35.42;14.55;;;17.00;78.60;;;;;;4194405;28;20056;-70
2021/11/19 10:16:13;;;;;;;40.40;14.43;;;16.90;78.60;;;;;;4203780;28;20044;-72
2021/11/19 10:18:27;;;;;;;33.25;15.40;;;16.90;78.50;;;;;;4192705;28;20061;-65
2021/11/19 10:20:36;;;;;;;38.42;14.07;;;16.90;78.50;;;;;;4208052;28;20116;-70
2021/11/19 10:22:46;;;;;;;37.63;14.95;;;16.90;78.70;;;;;;4202423;28;20045;-69
2021/11/19 10:25:08;;;;;;;36.38;15.48;;;17.00;78.50;;;;;;4190085;28;20324;-65
2021/11/19 10:27:13;;;;;;;40.47;14.55;;;17.00;78.30;;;;;;4194717;28;20048;-68
2021/11/19 10:29:22;;;;;;;29.65;13.48;;;17.00;78.20;;;;;;4194561;28;20321;-72
2021/11/19 10:31:27;;;;;;;30.30;14.65;;;17.10;78.70;;;;;;4189942;28;20064;-74
2021/11/19 10:33:33;;;;;;;31.08;14.40;;;17.10;78.10;;;;;;4202284;28;20064;-67
2021/11/19 10:35:55;;;;;;;39.08;14.90;;;17.10;77.90;;;;;;4205745;28;20075;-68
2021/11/19 10:38:23;;;;;;;37.83;15.93;;;17.10;78.10;;;;;;4195111;28;20052;-64
2021/11/19 10:41:01;;;;;;;42.30;15.98;;;17.10;78.10;;;;;;4192797;28;20094;-65
2021/11/19 10:43:24;;;;;;;27.80;14.75;;;17.10;78.80;;;;;;4196998;28;20110;-65
2021/11/19 10:46:05;;;;;;;39.03;16.77;;;17.20;79.60;;;;;;4197847;28;20062;-64
2021/11/19 10:48:58;;;;;;;44.88;21.67;;;17.20;79.30;;;;;;4196673;28;20045;-68
2021/11/19 10:51:26;;;;;;;43.75;16.75;;;17.20;79.60;;;;;;4159817;28;20044;-66